sensor_id;sensor_type;location;lat;lon;timestamp;P1;durP1;ratioP1;P2;durP2;ratioP2
41305;SDS011;27051;50.376;19.152;2022-09-17T00:01:05;21.85;;;12.37;;
41305;SDS011;27051;50.376;19.152;2022-09-17T00:03:33;23.30;;;12.63;;
41305;SDS011;27051;50.376;19.152;2022-09-17T00:06:02;24.23;;;11.78;;
41305;SDS011;27051;50.376;19.152;2022-09-17T00:08:33;22.95;;;11.63;;
41305;SDS011;27051;50.376;19.152;2022-09-17T00:11:12;20.43;;;11.93;;
41305;SDS011;27051;50.376;19.152;2022-09-17T00:13:45;21.57;;;11.08;;
41305;SDS011;27051;50.376;19.152;2022-09-17T00:16:12;22.87;;;10.68;;
41305;SDS011;27051;50.376;19.152;2022-09-17T00:18:39;24.27;;;11.68;;
41305;SDS011;27051;50.376;19.152;2022-09-17T00:21:05;24.57;;;12.35;;
41305;SDS011;27051;50.376;19.152;2022-09-17T00:23:33;26.57;;;13.38;;
41305;SDS011;27051;50.376;19.152;2022-09-17T00:26:03;21.00;;;11.83;;
41305;SDS011;27051;50.376;19.152;2022-09-17T00:28:30;22.85;;;12.63;;
41305;SDS011;27051;50.376;19.152;2022-09-17T00:30:57;24.20;;;12.55;;
41305;SDS011;27051;50.376;19.152;2022-09-17T00:33:24;24.25;;;11.95;;
41305;SDS011;27051;50.376;19.152;2022-09-17T00:35:57;24.65;;;11.83;;
41305;SDS011;27051;50.376;19.152;2022-09-17T00:38:26;19.48;;;11.35;;
41305;SDS011;27051;50.376;19.152;2022-09-17T00:40:53;19.62;;;10.98;;
41305;SDS011;27051;50.376;19.152;2022-09-17T00:43:31;18.25;;;10.55;;
41305;SDS011;27051;50.376;19.152;2022-09-17T00:46:05;21.35;;;11.00;;
41305;SDS011;27051;50.376;19.152;2022-09-17T00:48:39;24.60;;;12.65;;
41305;SDS011;27051;50.376;19.152;2022-09-17T00:51:06;20.50;;;11.45;;
41305;SDS011;27051;50.376;19.152;2022-09-17T00:53:36;23.00;;;11.30;;
41305;SDS011;27051;50.376;19.152;2022-09-17T00:56:24;19.80;;;10.65;;
41305;SDS011;27051;50.376;19.152;2022-09-17T00:58:54;21.27;;;11.63;;
41305;SDS011;27051;50.376;19.152;2022-09-17T01:01:21;17.95;;;9.95;;
41305;SDS011;27051;50.376;19.152;2022-09-17T01:03:48;20.20;;;10.75;;
41305;SDS011;27051;50.376;19.152;2022-09-17T01:06:36;19.70;;;10.85;;
41305;SDS011;27051;50.376;19.152;2022-09-17T01:17:33;22.70;;;10.30;;
41305;SDS011;27051;50.376;19.152;2022-09-17T01:31:51;21.97;;;11.75;;
41305;SDS011;27051;50.376;19.152;2022-09-17T01:34:42;21.48;;;12.40;;
41305;SDS011;27051;50.376;19.152;2022-09-17T01:37:36;22.52;;;12.65;;
41305;SDS011;27051;50.376;19.152;2022-09-17T01:45:37;22.42;;;11.83;;
41305;SDS011;27051;50.376;19.152;2022-09-17T01:50:52;23.10;;;11.25;;
41305;SDS011;27051;50.376;19.152;2022-09-17T01:53:28;16.93;;;10.18;;
41305;SDS011;27051;50.376;19.152;2022-09-17T01:58:26;19.17;;;9.88;;
41305;SDS011;27051;50.376;19.152;2022-09-17T02:01:04;19.75;;;10.15;;
41305;SDS011;27051;50.376;19.152;2022-09-17T02:03:32;19.17;;;9.38;;
41305;SDS011;27051;50.376;19.152;2022-09-17T02:06:13;20.05;;;10.30;;
41305;SDS011;27051;50.376;19.152;2022-09-17T02:11:17;18.90;;;9.83;;
41305;SDS011;27051;50.376;19.152;2022-09-17T02:14:05;19.27;;;9.48;;
41305;SDS011;27051;50.376;19.152;2022-09-17T02:16:39;17.98;;;9.20;;
41305;SDS011;27051;50.376;19.152;2022-09-17T02:19:26;18.27;;;9.00;;
41305;SDS011;27051;50.376;19.152;2022-09-17T02:25:05;18.42;;;9.70;;
41305;SDS011;27051;50.376;19.152;2022-09-17T02:30:33;17.35;;;8.93;;
41305;SDS011;27051;50.376;19.152;2022-09-17T02:33:01;18.82;;;9.03;;
41305;SDS011;27051;50.376;19.152;2022-09-17T02:35:31;16.80;;;8.63;;
41305;SDS011;27051;50.376;19.152;2022-09-17T02:37:59;18.67;;;9.00;;
41305;SDS011;27051;50.376;19.152;2022-09-17T02:40:26;18.35;;;8.58;;
41305;SDS011;27051;50.376;19.152;2022-09-17T02:43:09;14.78;;;8.13;;
41305;SDS011;27051;50.376;19.152;2022-09-17T02:46:07;16.45;;;8.30;;
41305;SDS011;27051;50.376;19.152;2022-09-17T02:54:49;14.25;;;7.67;;
41305;SDS011;27051;50.376;19.152;2022-09-17T02:57:53;18.73;;;7.95;;
41305;SDS011;27051;50.376;19.152;2022-09-17T03:00:24;15.53;;;8.50;;
41305;SDS011;27051;50.376;19.152;2022-09-17T03:05:26;19.30;;;8.90;;
41305;SDS011;27051;50.376;19.152;2022-09-17T03:07:54;18.00;;;9.58;;
41305;SDS011;27051;50.376;19.152;2022-09-17T03:10:22;20.08;;;9.25;;
41305;SDS011;27051;50.376;19.152;2022-09-17T03:12:49;16.75;;;9.70;;
41305;SDS011;27051;50.376;19.152;2022-09-17T03:15:18;16.85;;;8.40;;
41305;SDS011;27051;50.376;19.152;2022-09-17T03:17:45;18.57;;;8.88;;
41305;SDS011;27051;50.376;19.152;2022-09-17T03:20:12;17.95;;;8.23;;
41305;SDS011;27051;50.376;19.152;2022-09-17T03:22:38;21.33;;;8.23;;
41305;SDS011;27051;50.376;19.152;2022-09-17T03:25:05;20.95;;;9.53;;
41305;SDS011;27051;50.376;19.152;2022-09-17T03:27:33;17.40;;;9.25;;
41305;SDS011;27051;50.376;19.152;2022-09-17T03:30:00;17.90;;;9.63;;
41305;SDS011;27051;50.376;19.152;2022-09-17T03:32:27;18.82;;;10.05;;
41305;SDS011;27051;50.376;19.152;2022-09-17T03:34:53;18.05;;;10.03;;
41305;SDS011;27051;50.376;19.152;2022-09-17T03:37:20;17.75;;;9.65;;
41305;SDS011;27051;50.376;19.152;2022-09-17T03:39:46;19.75;;;8.85;;
41305;SDS011;27051;50.376;19.152;2022-09-17T03:42:13;23.67;;;10.43;;
41305;SDS011;27051;50.376;19.152;2022-09-17T03:44:39;18.42;;;9.68;;
41305;SDS011;27051;50.376;19.152;2022-09-17T03:47:06;16.65;;;9.15;;
41305;SDS011;27051;50.376;19.152;2022-09-17T03:49:33;21.87;;;8.88;;
41305;SDS011;27051;50.376;19.152;2022-09-17T03:51:59;21.40;;;9.88;;
41305;SDS011;27051;50.376;19.152;2022-09-17T03:54:26;18.77;;;10.00;;
41305;SDS011;27051;50.376;19.152;2022-09-17T03:56:53;21.07;;;10.15;;
41305;SDS011;27051;50.376;19.152;2022-09-17T03:59:20;20.60;;;10.28;;
41305;SDS011;27051;50.376;19.152;2022-09-17T04:01:46;18.67;;;10.60;;
41305;SDS011;27051;50.376;19.152;2022-09-17T04:04:13;22.48;;;10.18;;
41305;SDS011;27051;50.376;19.152;2022-09-17T04:06:39;20.55;;;11.12;;
41305;SDS011;27051;50.376;19.152;2022-09-17T04:09:06;20.95;;;10.65;;
41305;SDS011;27051;50.376;19.152;2022-09-17T04:11:33;19.95;;;10.60;;
41305;SDS011;27051;50.376;19.152;2022-09-17T04:14:00;22.98;;;10.08;;
41305;SDS011;27051;50.376;19.152;2022-09-17T04:16:26;18.77;;;9.58;;
41305;SDS011;27051;50.376;19.152;2022-09-17T04:18:53;19.70;;;10.08;;
41305;SDS011;27051;50.376;19.152;2022-09-17T04:21:20;19.57;;;10.00;;
41305;SDS011;27051;50.376;19.152;2022-09-17T04:23:46;18.50;;;10.50;;
41305;SDS011;27051;50.376;19.152;2022-09-17T04:26:13;23.55;;;10.63;;
41305;SDS011;27051;50.376;19.152;2022-09-17T04:28:39;19.73;;;10.23;;
41305;SDS011;27051;50.376;19.152;2022-09-17T04:31:06;18.75;;;9.45;;
41305;SDS011;27051;50.376;19.152;2022-09-17T04:33:33;22.50;;;10.53;;
41305;SDS011;27051;50.376;19.152;2022-09-17T04:36:00;18.73;;;10.45;;
41305;SDS011;27051;50.376;19.152;2022-09-17T04:38:28;20.80;;;9.75;;
41305;SDS011;27051;50.376;19.152;2022-09-17T04:40:55;21.42;;;10.32;;
41305;SDS011;27051;50.376;19.152;2022-09-17T04:43:21;18.80;;;9.38;;
41305;SDS011;27051;50.376;19.152;2022-09-17T04:45:48;21.12;;;11.10;;
41305;SDS011;27051;50.376;19.152;2022-09-17T04:48:15;22.30;;;11.85;;
41305;SDS011;27051;50.376;19.152;2022-09-17T04:50:42;20.10;;;10.10;;
41305;SDS011;27051;50.376;19.152;2022-09-17T04:53:09;17.32;;;9.35;;
41305;SDS011;27051;50.376;19.152;2022-09-17T04:55:35;20.88;;;10.78;;
41305;SDS011;27051;50.376;19.152;2022-09-17T04:58:02;18.15;;;9.38;;
41305;SDS011;27051;50.376;19.152;2022-09-17T05:00:28;15.93;;;9.10;;
41305;SDS011;27051;50.376;19.152;2022-09-17T05:02:55;18.57;;;9.45;;
41305;SDS011;27051;50.376;19.152;2022-09-17T05:05:22;20.02;;;9.25;;
41305;SDS011;27051;50.376;19.152;2022-09-17T05:07:49;18.02;;;9.50;;
41305;SDS011;27051;50.376;19.152;2022-09-17T05:10:16;16.10;;;8.85;;
41305;SDS011;27051;50.376;19.152;2022-09-17T05:12:49;21.07;;;9.60;;
41305;SDS011;27051;50.376;19.152;2022-09-17T05:15:21;17.65;;;9.00;;
41305;SDS011;27051;50.376;19.152;2022-09-17T05:17:49;18.42;;;9.70;;
41305;SDS011;27051;50.376;19.152;2022-09-17T05:20:16;23.92;;;13.93;;
41305;SDS011;27051;50.376;19.152;2022-09-17T05:22:44;25.85;;;15.63;;
41305;SDS011;27051;50.376;19.152;2022-09-17T05:25:13;18.57;;;11.05;;
41305;SDS011;27051;50.376;19.152;2022-09-17T05:27:42;22.37;;;12.53;;
41305;SDS011;27051;50.376;19.152;2022-09-17T05:30:09;22.37;;;10.93;;
41305;SDS011;27051;50.376;19.152;2022-09-17T05:32:37;20.60;;;10.50;;
41305;SDS011;27051;50.376;19.152;2022-09-17T05:35:05;17.32;;;9.48;;
41305;SDS011;27051;50.376;19.152;2022-09-17T05:37:32;18.60;;;9.68;;
41305;SDS011;27051;50.376;19.152;2022-09-17T05:40:00;19.23;;;10.43;;
41305;SDS011;27051;50.376;19.152;2022-09-17T05:42:28;15.72;;;9.28;;
41305;SDS011;27051;50.376;19.152;2022-09-17T05:44:55;18.30;;;9.43;;
41305;SDS011;27051;50.376;19.152;2022-09-17T05:47:21;16.05;;;9.08;;
41305;SDS011;27051;50.376;19.152;2022-09-17T05:49:48;17.20;;;8.78;;
41305;SDS011;27051;50.376;19.152;2022-09-17T05:52:15;16.20;;;8.53;;
41305;SDS011;27051;50.376;19.152;2022-09-17T05:54:41;15.98;;;8.48;;
41305;SDS011;27051;50.376;19.152;2022-09-17T05:57:08;16.50;;;7.78;;
41305;SDS011;27051;50.376;19.152;2022-09-17T05:59:34;18.00;;;8.50;;
41305;SDS011;27051;50.376;19.152;2022-09-17T06:02:01;15.75;;;8.83;;
41305;SDS011;27051;50.376;19.152;2022-09-17T06:04:40;15.93;;;9.63;;
41305;SDS011;27051;50.376;19.152;2022-09-17T06:07:07;18.42;;;9.43;;
41305;SDS011;27051;50.376;19.152;2022-09-17T06:09:34;15.53;;;9.08;;
41305;SDS011;27051;50.376;19.152;2022-09-17T06:12:02;16.75;;;9.08;;
41305;SDS011;27051;50.376;19.152;2022-09-17T06:14:30;17.02;;;8.38;;
41305;SDS011;27051;50.376;19.152;2022-09-17T06:16:57;20.17;;;9.58;;
41305;SDS011;27051;50.376;19.152;2022-09-17T06:19:24;16.00;;;10.03;;
41305;SDS011;27051;50.376;19.152;2022-09-17T06:21:50;24.05;;;11.12;;
41305;SDS011;27051;50.376;19.152;2022-09-17T06:24:17;17.90;;;10.45;;
41305;SDS011;27051;50.376;19.152;2022-09-17T06:26:44;17.85;;;10.65;;
41305;SDS011;27051;50.376;19.152;2022-09-17T06:29:10;18.70;;;10.25;;
41305;SDS011;27051;50.376;19.152;2022-09-17T06:31:37;20.70;;;10.43;;
41305;SDS011;27051;50.376;19.152;2022-09-17T06:34:03;17.87;;;10.40;;
41305;SDS011;27051;50.376;19.152;2022-09-17T06:36:30;16.67;;;10.32;;
41305;SDS011;27051;50.376;19.152;2022-09-17T06:38:56;18.67;;;10.80;;
41305;SDS011;27051;50.376;19.152;2022-09-17T06:41:23;16.17;;;9.93;;
41305;SDS011;27051;50.376;19.152;2022-09-17T06:43:54;18.15;;;10.10;;
41305;SDS011;27051;50.376;19.152;2022-09-17T06:46:19;22.32;;;9.60;;
41305;SDS011;27051;50.376;19.152;2022-09-17T06:48:45;12.07;;;7.42;;
41305;SDS011;27051;50.376;19.152;2022-09-17T06:51:12;12.20;;;7.20;;
41305;SDS011;27051;50.376;19.152;2022-09-17T06:53:39;13.08;;;7.25;;
41305;SDS011;27051;50.376;19.152;2022-09-17T06:59:57;11.07;;;6.60;;
41305;SDS011;27051;50.376;19.152;2022-09-17T07:02:23;11.38;;;6.17;;
41305;SDS011;27051;50.376;19.152;2022-09-17T07:04:50;9.55;;;5.60;;
41305;SDS011;27051;50.376;19.152;2022-09-17T07:07:17;10.68;;;5.62;;
41305;SDS011;27051;50.376;19.152;2022-09-17T07:09:44;11.08;;;6.00;;
41305;SDS011;27051;50.376;19.152;2022-09-17T07:12:10;10.88;;;6.12;;
41305;SDS011;27051;50.376;19.152;2022-09-17T07:14:37;12.35;;;6.00;;
41305;SDS011;27051;50.376;19.152;2022-09-17T07:17:03;12.60;;;6.33;;
41305;SDS011;27051;50.376;19.152;2022-09-17T07:19:30;12.07;;;6.33;;
41305;SDS011;27051;50.376;19.152;2022-09-17T07:21:57;10.75;;;5.87;;
41305;SDS011;27051;50.376;19.152;2022-09-17T07:24:23;12.95;;;6.55;;
41305;SDS011;27051;50.376;19.152;2022-09-17T07:26:51;11.65;;;6.40;;
41305;SDS011;27051;50.376;19.152;2022-09-17T07:29:17;16.02;;;7.08;;
41305;SDS011;27051;50.376;19.152;2022-09-17T07:31:44;10.38;;;6.20;;
41305;SDS011;27051;50.376;19.152;2022-09-17T07:34:10;11.50;;;6.12;;
41305;SDS011;27051;50.376;19.152;2022-09-17T07:36:37;12.47;;;5.80;;
41305;SDS011;27051;50.376;19.152;2022-09-17T07:39:04;10.80;;;5.75;;
41305;SDS011;27051;50.376;19.152;2022-09-17T07:41:30;12.93;;;5.40;;
41305;SDS011;27051;50.376;19.152;2022-09-17T07:43:57;9.00;;;4.60;;
41305;SDS011;27051;50.376;19.152;2022-09-17T07:46:24;9.98;;;4.20;;
41305;SDS011;27051;50.376;19.152;2022-09-17T07:48:50;7.60;;;4.42;;
41305;SDS011;27051;50.376;19.152;2022-09-17T07:51:22;6.65;;;3.47;;
41305;SDS011;27051;50.376;19.152;2022-09-17T07:53:56;7.95;;;3.30;;
41305;SDS011;27051;50.376;19.152;2022-09-17T07:56:22;7.72;;;3.45;;
41305;SDS011;27051;50.376;19.152;2022-09-17T07:58:50;8.48;;;3.67;;
41305;SDS011;27051;50.376;19.152;2022-09-17T08:01:17;6.67;;;3.50;;
41305;SDS011;27051;50.376;19.152;2022-09-17T08:03:53;4.72;;;3.00;;
41305;SDS011;27051;50.376;19.152;2022-09-17T08:06:22;9.00;;;3.05;;
41305;SDS011;27051;50.376;19.152;2022-09-17T08:08:49;7.72;;;3.30;;
41305;SDS011;27051;50.376;19.152;2022-09-17T08:11:17;4.50;;;2.90;;
41305;SDS011;27051;50.376;19.152;2022-09-17T08:13:46;4.10;;;2.25;;
41305;SDS011;27051;50.376;19.152;2022-09-17T08:16:15;4.78;;;2.47;;
41305;SDS011;27051;50.376;19.152;2022-09-17T08:18:42;6.75;;;2.37;;
41305;SDS011;27051;50.376;19.152;2022-09-17T08:21:11;2.87;;;2.33;;
41305;SDS011;27051;50.376;19.152;2022-09-17T08:23:41;6.87;;;2.67;;
41305;SDS011;27051;50.376;19.152;2022-09-17T08:26:13;3.77;;;2.47;;
41305;SDS011;27051;50.376;19.152;2022-09-17T08:28:45;4.85;;;2.33;;
41305;SDS011;27051;50.376;19.152;2022-09-17T08:31:15;6.03;;;2.25;;
41305;SDS011;27051;50.376;19.152;2022-09-17T08:33:44;5.47;;;2.80;;
41305;SDS011;27051;50.376;19.152;2022-09-17T08:36:15;9.70;;;3.02;;
41305;SDS011;27051;50.376;19.152;2022-09-17T08:38:42;5.30;;;2.77;;
41305;SDS011;27051;50.376;19.152;2022-09-17T08:43:51;7.05;;;2.85;;
41305;SDS011;27051;50.376;19.152;2022-09-17T08:46:31;6.35;;;3.00;;
41305;SDS011;27051;50.376;19.152;2022-09-17T08:49:14;7.47;;;3.47;;
41305;SDS011;27051;50.376;19.152;2022-09-17T09:00:52;9.93;;;3.90;;
41305;SDS011;27051;50.376;19.152;2022-09-17T09:03:57;6.55;;;3.20;;
41305;SDS011;27051;50.376;19.152;2022-09-17T09:06:45;7.25;;;3.30;;
41305;SDS011;27051;50.376;19.152;2022-09-17T09:09:16;6.65;;;2.75;;
41305;SDS011;27051;50.376;19.152;2022-09-17T09:11:59;5.33;;;2.52;;
41305;SDS011;27051;50.376;19.152;2022-09-17T09:14:34;4.80;;;2.75;;
41305;SDS011;27051;50.376;19.152;2022-09-17T09:17:09;6.90;;;2.85;;
41305;SDS011;27051;50.376;19.152;2022-09-17T09:19:40;9.85;;;3.98;;
41305;SDS011;27051;50.376;19.152;2022-09-17T09:31:44;4.78;;;3.00;;
41305;SDS011;27051;50.376;19.152;2022-09-17T09:33:51;5.58;;;3.30;;
41305;SDS011;27051;50.376;19.152;2022-09-17T09:36:18;6.25;;;3.10;;
41305;SDS011;27051;50.376;19.152;2022-09-17T09:38:47;7.47;;;3.47;;
41305;SDS011;27051;50.376;19.152;2022-09-17T09:41:31;8.30;;;4.20;;
41305;SDS011;27051;50.376;19.152;2022-09-17T09:44:15;8.13;;;3.67;;
41305;SDS011;27051;50.376;19.152;2022-09-17T09:46:51;6.87;;;3.10;;
41305;SDS011;27051;50.376;19.152;2022-09-17T09:49:41;7.47;;;3.47;;
41305;SDS011;27051;50.376;19.152;2022-09-17T09:52:19;7.35;;;3.42;;
41305;SDS011;27051;50.376;19.152;2022-09-17T09:58:33;7.40;;;3.58;;
41305;SDS011;27051;50.376;19.152;2022-09-17T10:01:10;7.67;;;3.65;;
41305;SDS011;27051;50.376;19.152;2022-09-17T10:03:42;7.62;;;3.65;;
41305;SDS011;27051;50.376;19.152;2022-09-17T10:06:09;7.05;;;4.05;;
41305;SDS011;27051;50.376;19.152;2022-09-17T10:08:40;5.87;;;3.20;;
41305;SDS011;27051;50.376;19.152;2022-09-17T10:13:50;7.53;;;3.62;;
41305;SDS011;27051;50.376;19.152;2022-09-17T10:16:21;6.00;;;3.62;;
41305;SDS011;27051;50.376;19.152;2022-09-17T10:21:35;5.65;;;3.60;;
41305;SDS011;27051;50.376;19.152;2022-09-17T10:24:16;6.25;;;3.60;;
41305;SDS011;27051;50.376;19.152;2022-09-17T10:26:49;5.58;;;3.50;;
41305;SDS011;27051;50.376;19.152;2022-09-17T10:29:18;9.90;;;3.87;;
41305;SDS011;27051;50.376;19.152;2022-09-17T10:34:20;8.15;;;4.25;;
41305;SDS011;27051;50.376;19.152;2022-09-17T10:36:56;7.78;;;4.20;;
41305;SDS011;27051;50.376;19.152;2022-09-17T10:44:56;6.53;;;4.45;;
41305;SDS011;27051;50.376;19.152;2022-09-17T10:52:46;9.73;;;4.85;;
41305;SDS011;27051;50.376;19.152;2022-09-17T11:04:20;11.50;;;4.37;;
41305;SDS011;27051;50.376;19.152;2022-09-17T11:09:58;9.30;;;4.22;;
41305;SDS011;27051;50.376;19.152;2022-09-17T11:16:18;8.80;;;4.28;;
41305;SDS011;27051;50.376;19.152;2022-09-17T11:19:06;19.82;;;8.00;;
41305;SDS011;27051;50.376;19.152;2022-09-17T11:22:10;15.40;;;6.95;;
41305;SDS011;27051;50.376;19.152;2022-09-17T11:27:49;10.32;;;4.75;;
41305;SDS011;27051;50.376;19.152;2022-09-17T11:30:25;22.20;;;8.33;;
41305;SDS011;27051;50.376;19.152;2022-09-17T11:38:58;7.60;;;3.67;;
41305;SDS011;27051;50.376;19.152;2022-09-17T11:41:34;7.87;;;4.12;;
41305;SDS011;27051;50.376;19.152;2022-09-17T11:46:56;11.68;;;5.50;;
41305;SDS011;27051;50.376;19.152;2022-09-17T11:52:23;6.40;;;3.45;;
41305;SDS011;27051;50.376;19.152;2022-09-17T11:54:58;5.50;;;3.47;;
41305;SDS011;27051;50.376;19.152;2022-09-17T11:57:36;12.78;;;6.83;;
41305;SDS011;27051;50.376;19.152;2022-09-17T12:00:11;6.53;;;3.83;;
41305;SDS011;27051;50.376;19.152;2022-09-17T12:02:46;8.68;;;3.12;;
41305;SDS011;27051;50.376;19.152;2022-09-17T12:08:08;7.80;;;3.62;;
41305;SDS011;27051;50.376;19.152;2022-09-17T12:16:25;6.78;;;3.25;;
41305;SDS011;27051;50.376;19.152;2022-09-17T12:18:57;5.72;;;3.20;;
41305;SDS011;27051;50.376;19.152;2022-09-17T12:24:22;6.10;;;3.20;;
41305;SDS011;27051;50.376;19.152;2022-09-17T12:38:34;5.42;;;3.30;;
41305;SDS011;27051;50.376;19.152;2022-09-17T12:41:19;5.47;;;3.20;;
41305;SDS011;27051;50.376;19.152;2022-09-17T12:44:10;6.45;;;3.70;;
41305;SDS011;27051;50.376;19.152;2022-09-17T12:53:17;5.22;;;3.37;;
41305;SDS011;27051;50.376;19.152;2022-09-17T12:55:20;5.97;;;3.75;;
41305;SDS011;27051;50.376;19.152;2022-09-17T13:01:17;6.42;;;3.10;;
41305;SDS011;27051;50.376;19.152;2022-09-17T13:12:43;5.25;;;3.27;;
41305;SDS011;27051;50.376;19.152;2022-09-17T13:24:19;6.83;;;3.58;;
41305;SDS011;27051;50.376;19.152;2022-09-17T13:26:49;6.47;;;3.40;;
41305;SDS011;27051;50.376;19.152;2022-09-17T13:40:25;20.12;;;8.20;;
41305;SDS011;27051;50.376;19.152;2022-09-17T13:48:31;10.45;;;4.60;;
41305;SDS011;27051;50.376;19.152;2022-09-17T13:51:41;6.25;;;3.70;;
41305;SDS011;27051;50.376;19.152;2022-09-17T13:53:58;8.73;;;3.05;;
41305;SDS011;27051;50.376;19.152;2022-09-17T13:56:29;7.25;;;4.25;;
41305;SDS011;27051;50.376;19.152;2022-09-17T13:59:06;9.25;;;4.03;;
41305;SDS011;27051;50.376;19.152;2022-09-17T14:09:56;7.50;;;3.77;;
41305;SDS011;27051;50.376;19.152;2022-09-17T14:21:22;7.65;;;3.80;;
41305;SDS011;27051;50.376;19.152;2022-09-17T14:23:53;8.10;;;4.00;;
41305;SDS011;27051;50.376;19.152;2022-09-17T14:31:53;9.55;;;4.62;;
41305;SDS011;27051;50.376;19.152;2022-09-17T14:34:21;12.70;;;5.45;;
41305;SDS011;27051;50.376;19.152;2022-09-17T14:36:51;37.08;;;22.30;;
41305;SDS011;27051;50.376;19.152;2022-09-17T14:39:20;24.50;;;11.97;;
41305;SDS011;27051;50.376;19.152;2022-09-17T14:41:50;21.23;;;10.45;;
41305;SDS011;27051;50.376;19.152;2022-09-17T14:44:26;25.27;;;12.98;;
41305;SDS011;27051;50.376;19.152;2022-09-17T14:46:57;27.60;;;12.75;;
41305;SDS011;27051;50.376;19.152;2022-09-17T14:49:34;23.30;;;10.98;;
41305;SDS011;27051;50.376;19.152;2022-09-17T14:57:53;20.92;;;8.25;;
41305;SDS011;27051;50.376;19.152;2022-09-17T15:00:32;17.07;;;7.35;;
41305;SDS011;27051;50.376;19.152;2022-09-17T15:03:01;12.35;;;6.00;;
41305;SDS011;27051;50.376;19.152;2022-09-17T15:05:31;14.00;;;6.30;;
41305;SDS011;27051;50.376;19.152;2022-09-17T15:10:53;13.15;;;6.33;;
41305;SDS011;27051;50.376;19.152;2022-09-17T15:13:30;13.80;;;6.28;;
41305;SDS011;27051;50.376;19.152;2022-09-17T15:16:27;16.73;;;7.65;;
41305;SDS011;27051;50.376;19.152;2022-09-17T15:18:53;19.80;;;7.80;;
41305;SDS011;27051;50.376;19.152;2022-09-17T15:26:52;19.50;;;8.53;;
41305;SDS011;27051;50.376;19.152;2022-09-17T15:29:23;21.93;;;9.90;;
41305;SDS011;27051;50.376;19.152;2022-09-17T15:31:53;17.17;;;7.97;;
41305;SDS011;27051;50.376;19.152;2022-09-17T15:34:20;12.88;;;6.03;;
41305;SDS011;27051;50.376;19.152;2022-09-17T15:37:04;11.20;;;4.90;;
41305;SDS011;27051;50.376;19.152;2022-09-17T15:39:47;9.35;;;4.47;;
41305;SDS011;27051;50.376;19.152;2022-09-17T15:42:21;9.15;;;4.00;;
41305;SDS011;27051;50.376;19.152;2022-09-17T15:45:18;7.58;;;4.30;;
41305;SDS011;27051;50.376;19.152;2022-09-17T15:47:53;11.25;;;5.15;;
41305;SDS011;27051;50.376;19.152;2022-09-17T15:50:22;9.48;;;4.50;;
41305;SDS011;27051;50.376;19.152;2022-09-17T15:55:39;8.68;;;4.75;;
41305;SDS011;27051;50.376;19.152;2022-09-17T16:01:17;11.15;;;4.70;;
41305;SDS011;27051;50.376;19.152;2022-09-17T16:09:02;16.42;;;7.15;;
41305;SDS011;27051;50.376;19.152;2022-09-17T16:11:30;17.30;;;7.55;;
41305;SDS011;27051;50.376;19.152;2022-09-17T16:13:58;18.15;;;8.53;;
41305;SDS011;27051;50.376;19.152;2022-09-17T16:16:36;15.15;;;7.33;;
41305;SDS011;27051;50.376;19.152;2022-09-17T16:19:04;13.28;;;7.90;;
41305;SDS011;27051;50.376;19.152;2022-09-17T16:21:31;18.02;;;9.18;;
41305;SDS011;27051;50.376;19.152;2022-09-17T16:23:58;18.52;;;9.60;;
41305;SDS011;27051;50.376;19.152;2022-09-17T16:26:30;18.60;;;8.68;;
41305;SDS011;27051;50.376;19.152;2022-09-17T16:29:01;20.02;;;9.08;;
41305;SDS011;27051;50.376;19.152;2022-09-17T16:31:33;16.93;;;8.48;;
41305;SDS011;27051;50.376;19.152;2022-09-17T16:33:59;19.00;;;9.13;;
41305;SDS011;27051;50.376;19.152;2022-09-17T16:36:26;19.48;;;9.65;;
41305;SDS011;27051;50.376;19.152;2022-09-17T16:38:53;23.05;;;10.58;;
41305;SDS011;27051;50.376;19.152;2022-09-17T16:41:20;22.37;;;12.55;;
41305;SDS011;27051;50.376;19.152;2022-09-17T16:43:46;24.25;;;14.00;;
41305;SDS011;27051;50.376;19.152;2022-09-17T16:46:13;29.20;;;16.12;;
41305;SDS011;27051;50.376;19.152;2022-09-17T16:48:39;29.27;;;15.90;;
41305;SDS011;27051;50.376;19.152;2022-09-17T16:51:06;31.70;;;19.57;;
41305;SDS011;27051;50.376;19.152;2022-09-17T16:53:36;29.90;;;17.67;;
41305;SDS011;27051;50.376;19.152;2022-09-17T16:56:07;29.18;;;17.32;;
41305;SDS011;27051;50.376;19.152;2022-09-17T17:01:05;45.43;;;23.92;;
41305;SDS011;27051;50.376;19.152;2022-09-17T17:03:40;44.03;;;23.00;;
41305;SDS011;27051;50.376;19.152;2022-09-17T17:06:14;38.25;;;22.30;;
41305;SDS011;27051;50.376;19.152;2022-09-17T17:08:42;42.83;;;23.52;;
41305;SDS011;27051;50.376;19.152;2022-09-17T17:11:09;37.53;;;23.15;;
41305;SDS011;27051;50.376;19.152;2022-09-17T17:13:36;30.60;;;18.65;;
41305;SDS011;27051;50.376;19.152;2022-09-17T17:16:04;30.75;;;18.27;;
41305;SDS011;27051;50.376;19.152;2022-09-17T17:18:33;32.42;;;16.80;;
41305;SDS011;27051;50.376;19.152;2022-09-17T17:21:03;34.18;;;17.50;;
41305;SDS011;27051;50.376;19.152;2022-09-17T17:23:33;27.60;;;15.53;;
41305;SDS011;27051;50.376;19.152;2022-09-17T17:26:01;30.88;;;16.73;;
41305;SDS011;27051;50.376;19.152;2022-09-17T17:28:31;33.25;;;18.70;;
41305;SDS011;27051;50.376;19.152;2022-09-17T17:33:26;29.75;;;16.23;;
41305;SDS011;27051;50.376;19.152;2022-09-17T17:35:53;28.52;;;16.27;;
41305;SDS011;27051;50.376;19.152;2022-09-17T17:38:19;27.00;;;16.15;;
41305;SDS011;27051;50.376;19.152;2022-09-17T17:40:46;29.42;;;17.20;;
41305;SDS011;27051;50.376;19.152;2022-09-17T17:43:13;27.13;;;16.70;;
41305;SDS011;27051;50.376;19.152;2022-09-17T17:45:39;29.82;;;17.85;;
41305;SDS011;27051;50.376;19.152;2022-09-17T17:48:06;28.65;;;16.93;;
41305;SDS011;27051;50.376;19.152;2022-09-17T17:50:33;27.58;;;17.05;;
41305;SDS011;27051;50.376;19.152;2022-09-17T17:52:59;26.70;;;16.32;;
41305;SDS011;27051;50.376;19.152;2022-09-17T17:55:26;32.03;;;18.85;;
41305;SDS011;27051;50.376;19.152;2022-09-17T17:57:53;28.73;;;18.62;;
41305;SDS011;27051;50.376;19.152;2022-09-17T18:00:21;32.42;;;21.80;;
41305;SDS011;27051;50.376;19.152;2022-09-17T18:02:49;31.97;;;19.87;;
41305;SDS011;27051;50.376;19.152;2022-09-17T18:05:17;33.70;;;20.85;;
41305;SDS011;27051;50.376;19.152;2022-09-17T18:07:44;31.37;;;20.35;;
41305;SDS011;27051;50.376;19.152;2022-09-17T18:10:10;35.23;;;19.98;;
41305;SDS011;27051;50.376;19.152;2022-09-17T18:12:37;32.48;;;19.10;;
41305;SDS011;27051;50.376;19.152;2022-09-17T18:15:05;33.45;;;19.90;;
41305;SDS011;27051;50.376;19.152;2022-09-17T18:17:32;34.88;;;19.85;;
41305;SDS011;27051;50.376;19.152;2022-09-17T18:19:59;34.20;;;21.07;;
41305;SDS011;27051;50.376;19.152;2022-09-17T18:22:26;33.05;;;19.98;;
41305;SDS011;27051;50.376;19.152;2022-09-17T18:24:53;32.73;;;19.98;;
41305;SDS011;27051;50.376;19.152;2022-09-17T18:27:20;29.60;;;19.10;;
41305;SDS011;27051;50.376;19.152;2022-09-17T18:29:46;31.82;;;20.45;;
41305;SDS011;27051;50.376;19.152;2022-09-17T18:32:13;54.42;;;32.60;;
41305;SDS011;27051;50.376;19.152;2022-09-17T18:34:40;33.13;;;18.02;;
41305;SDS011;27051;50.376;19.152;2022-09-17T18:37:06;26.07;;;16.35;;
41305;SDS011;27051;50.376;19.152;2022-09-17T18:39:33;29.12;;;17.45;;
41305;SDS011;27051;50.376;19.152;2022-09-17T18:42:00;28.92;;;16.60;;
41305;SDS011;27051;50.376;19.152;2022-09-17T18:44:26;23.55;;;14.05;;
41305;SDS011;27051;50.376;19.152;2022-09-17T18:46:53;32.58;;;17.92;;